Time;durP1;ratioP1;P1;durP2;ratioP2;P2;SDS_P1;SDS_P2;PMS_P1;PMS_P2;Temp;Humidity;BMP_temperature;BMP_pressure;BME280_temperature;BME280_humidity;BME280_pressure;Samples;Min_cycle;Max_cycle;Signal;HPM_P1;HPM_P2
2023/08/30 00:00:05;;;;;;;;;;;;;;;;;;5091390;28;19977;-58
2023/08/30 00:02:33;;;;;;;;;;;;;;;;;;5092434;28;19966;-58
2023/08/30 00:04:59;;;;;;;;;;;;;;;;;;5092370;28;20375;-59
2023/08/30 00:07:26;;;;;;;;;;;;;;;;;;5093036;28;19920;-58
2023/08/30 00:09:52;;;;;;;;;;;;;;;;;;5095977;28;20317;-59
2023/08/30 00:12:19;;;;;;;;;;;;;;;;;;5096220;28;19930;-58
2023/08/30 00:14:46;;;;;;;;;;;;;;;;;;5095730;28;20390;-59
2023/08/30 00:17:12;;;;;;;;;;;;;;;;;;5095833;28;19955;-59
2023/08/30 00:19:39;;;;;;;;;;;;;;;;;;5095921;28;20022;-59
2023/08/30 00:22:07;;;;;;;;;;;;;;;;;;5095847;28;19924;-58
2023/08/30 00:24:33;;;;;;;;;;;;;;;;;;5095560;28;19982;-58
2023/08/30 00:27:00;;;;;;;;;;;;;;;;;;5095808;28;19920;-59
2023/08/30 00:29:27;;;;;;;;;;;;;;;;;;5095738;28;19927;-58
2023/08/30 00:31:54;;;;;;;;;;;;;;;;;;5094275;28;19926;-59
2023/08/30 00:34:20;;;;;;;;;;;;;;;;;;5094926;28;20026;-59
2023/08/30 00:36:47;;;;;;;;;;;;;;;;;;5095373;28;19936;-59
2023/08/30 00:39:14;;;;;;;;;;;;;;;;;;5094263;28;19939;-59
2023/08/30 00:41:41;;;;;;;;;;;;;;;;;;5094260;28;19969;-59
2023/08/30 00:44:07;;;;;;;;;;;;;;;;;;5095805;28;19923;-59
2023/08/30 00:46:34;;;;;;;;;;;;;;;;;;5094187;28;20393;-59
2023/08/30 00:49:01;;;;;;;;;;;;;;;;;;5095392;28;19920;-59
2023/08/30 00:51:27;;;;;;;;;;;;;;;;;;5095583;28;19919;-59
2023/08/30 00:53:54;;;;;;;;;;;;;;;;;;5094875;28;19920;-59
2023/08/30 00:56:21;;;;;;;;;;;;;;;;;;5093898;28;19927;-59
2023/08/30 00:58:48;;;;;;;;;;;;;;;;;;5095059;28;19920;-59
2023/08/30 01:01:15;;;;;;;;;;;;;;;;;;5094757;28;19973;-59
2023/08/30 01:03:41;;;;;;;;;;;;;;;;;;5094920;28;19926;-59
2023/08/30 01:06:08;;;;;;;;;;;;;;;;;;5093739;28;19920;-59
2023/08/30 01:08:37;;;;;;;;;;;;;;;;;;5094842;28;20358;-60
2023/08/30 01:11:04;;;;;;;;;;;;;;;;;;5095029;28;19927;-59
2023/08/30 01:13:31;;;;;;;;;;;;;;;;;;5094570;28;19924;-59
2023/08/30 01:15:58;;;;;;;;;;;;;;;;;;5094748;28;20438;-60
2023/08/30 01:18:25;;;;;;;;;;;;;;;;;;5092983;28;19927;-59
2023/08/30 01:20:51;;;;;;;;;;;;;;;;;;5093209;28;20030;-59
2023/08/30 01:23:18;;;;;;;;;;;;;;;;;;5094621;28;19927;-59
2023/08/30 01:25:45;;;;;;;;;;;;;;;;;;5093280;28;20018;-59
2023/08/30 01:28:11;;;;;;;;;;;;;;;;;;5093351;28;19973;-59
2023/08/30 01:30:39;;;;;;;;;;;;;;;;;;5094758;28;19987;-59
2023/08/30 01:33:05;;;;;;;;;;;;;;;;;;5093253;28;20409;-59
2023/08/30 01:35:32;;;;;;;;;;;;;;;;;;5094275;28;19931;-59
2023/08/30 01:38:00;;;;;;;;;;;;;;;;;;5094643;28;19930;-59
2023/08/30 01:40:27;;;;;;;;;;;;;;;;;;5093875;28;20262;-59
2023/08/30 01:42:54;;;;;;;;;;;;;;;;;;5094331;28;19927;-59
2023/08/30 01:45:20;;;;;;;;;;;;;;;;;;5094216;28;20030;-59
2023/08/30 01:47:47;;;;;;;;;;;;;;;;;;5094249;28;19920;-59
2023/08/30 01:50:15;;;;;;;;;;;;;;;;;;5092799;28;19927;-59
2023/08/30 01:52:42;;;;;;;;;;;;;;;;;;5093047;28;19920;-59
2023/08/30 01:55:09;;;;;;;;;;;;;;;;;;5092936;28;19989;-59
2023/08/30 01:57:36;;;;;;;;;;;;;;;;;;5093906;28;19920;-59
2023/08/30 02:00:02;;;;;;;;;;;;;;;;;;5093049;28;19920;-59
2023/08/30 02:02:31;;;;;;;;;;;;;;;;;;5093984;28;20002;-59
2023/08/30 02:04:57;;;;;;;;;;;;;;;;;;5093726;28;19970;-59
2023/08/30 02:07:24;;;;;;;;;;;;;;;;;;5092210;28;19926;-59
2023/08/30 02:09:52;;;;;;;;;;;;;;;;;;5092515;28;19919;-59
2023/08/30 02:12:19;;;;;;;;;;;;;;;;;;5093536;28;19963;-59
2023/08/30 02:14:45;;;;;;;;;;;;;;;;;;5093636;28;19920;-59
2023/08/30 02:17:12;;;;;;;;;;;;;;;;;;5092497;28;19963;-63
2023/08/30 02:19:39;;;;;;;;;;;;;;;;;;5092348;28;19927;-59
2023/08/30 02:22:06;;;;;;;;;;;;;;;;;;5093470;28;20302;-60
2023/08/30 02:24:32;;;;;;;;;;;;;;;;;;5092714;28;19928;-58
2023/08/30 02:26:59;;;;;;;;;;;;;;;;;;5093334;28;19920;-61
2023/08/30 02:29:26;;;;;;;;;;;;;;;;;;5092117;28;19919;-58
2023/08/30 02:31:53;;;;;;;;;;;;;;;;;;5093161;28;19973;-61
2023/08/30 02:34:22;;;;;;;;;;;;;;;;;;5093256;28;20260;-58
2023/08/30 02:36:48;;;;;;;;;;;;;;;;;;5092236;28;19920;-60
2023/08/30 02:39:15;;;;;;;;;;;;;;;;;;5092024;28;19920;-60
2023/08/30 02:41:42;;;;;;;;;;;;;;;;;;5092082;28;20022;-60
2023/08/30 02:44:08;;;;;;;;;;;;;;;;;;5093440;28;20310;-60
2023/08/30 02:46:37;;;;;;;;;;;;;;;;;;5093059;28;19927;-61
2023/08/30 02:49:06;;;;;;;;;;;;;;;;;;5091912;28;19924;-58
2023/08/30 02:51:32;;;;;;;;;;;;;;;;;;5091863;28;20009;-60
2023/08/30 02:53:59;;;;;;;;;;;;;;;;;;5091648;28;19920;-60
2023/08/30 02:56:26;;;;;;;;;;;;;;;;;;5093223;28;19927;-60
2023/08/30 02:58:52;;;;;;;;;;;;;;;;;;5091985;28;19920;-60
2023/08/30 03:01:19;;;;;;;;;;;;;;;;;;5108661;28;19927;-60
2023/08/30 03:03:48;;;;;;;;;;;;;;;;;;5091927;28;19927;-60
2023/08/30 03:06:15;;;;;;;;;;;;;;;;;;5091945;28;19926;-60
2023/08/30 03:08:41;;;;;;;;;;;;;;;;;;5091757;28;19920;-60
2023/08/30 03:11:08;;;;;;;;;;;;;;;;;;5091807;28;19927;-60
2023/08/30 03:13:36;;;;;;;;;;;;;;;;;;5108671;28;20015;-60
2023/08/30 03:16:03;;;;;;;;;;;;;;;;;;5092052;28;20019;-60
2023/08/30 03:18:30;;;;;;;;;;;;;;;;;;5091611;28;19920;-60
2023/08/30 03:20:57;;;;;;;;;;;;;;;;;;5093645;28;19920;-60
2023/08/30 03:23:24;;;;;;;;;;;;;;;;;;5091416;28;19933;-60
2023/08/30 03:25:51;;;;;;;;;;;;;;;;;;5092996;28;19938;-60
2023/08/30 03:28:18;;;;;;;;;;;;;;;;;;5093799;28;19959;-60
2023/08/30 03:30:45;;;;;;;;;;;;;;;;;;5092764;28;20019;-60
2023/08/30 03:33:12;;;;;;;;;;;;;;;;;;5091478;28;19920;-60
2023/08/30 03:35:38;;;;;;;;;;;;;;;;;;5092766;28;20363;-60
2023/08/30 03:38:06;;;;;;;;;;;;;;;;;;5091540;28;19959;-60
2023/08/30 03:40:32;;;;;;;;;;;;;;;;;;5091354;28;19927;-60
2023/08/30 03:42:59;;;;;;;;;;;;;;;;;;5094585;28;19927;-60
2023/08/30 03:45:26;;;;;;;;;;;;;;;;;;5095232;28;19920;-58
2023/08/30 03:47:53;;;;;;;;;;;;;;;;;;5096766;28;19973;-60
2023/08/30 03:50:19;;;;;;;;;;;;;;;;;;5096565;28;20359;-61
2023/08/30 03:52:46;;;;;;;;;;;;;;;;;;5095260;28;19973;-60
2023/08/30 03:55:13;;;;;;;;;;;;;;;;;;5094950;28;19920;-60
2023/08/30 03:57:40;;;;;;;;;;;;;;;;;;5096241;28;19920;-60
2023/08/30 04:00:07;;;;;;;;;;;;;;;;;;5096434;28;20318;-60
2023/08/30 04:02:41;;;;;;;;;;;;;;;;;;5096371;28;20275;-60
2023/08/30 04:05:09;;;;;;;;;;;;;;;;;;5094987;28;19920;-60
2023/08/30 04:07:35;;;;;;;;;;;;;;;;;;5095886;28;19985;-60
2023/08/30 04:10:06;;;;;;;;;;;;;;;;;;5094997;28;19920;-60
2023/08/30 04:12:32;;;;;;;;;;;;;;;;;;5095339;28;19926;-60
2023/08/30 04:14:59;;;;;;;;;;;;;;;;;;5094388;28;20015;-60
2023/08/30 04:17:26;;;;;;;;;;;;;;;;;;5094911;28;19932;-60
2023/08/30 04:19:53;;;;;;;;;;;;;;;;;;5094994;28;20008;-60
2023/08/30 04:22:20;;;;;;;;;;;;;;;;;;5094586;28;19970;-60
2023/08/30 04:24:47;;;;;;;;;;;;;;;;;;5094599;28;19920;-60
2023/08/30 04:27:14;;;;;;;;;;;;;;;;;;5094741;28;19947;-60
2023/08/30 04:29:44;;;;;;;;;;;;;;;;;;5094610;28;19973;-60
2023/08/30 04:32:11;;;;;;;;;;;;;;;;;;5094761;28;20375;-60
2023/08/30 04:34:38;;;;;;;;;;;;;;;;;;5095609;28;19920;-60
2023/08/30 04:37:05;;;;;;;;;;;;;;;;;;5094463;28;19920;-60
2023/08/30 04:39:31;;;;;;;;;;;;;;;;;;5094446;28;19946;-59
2023/08/30 04:41:58;;;;;;;;;;;;;;;;;;5094346;28;20480;-60
2023/08/30 04:44:27;;;;;;;;;;;;;;;;;;5094072;28;20011;-60
2023/08/30 04:46:54;;;;;;;;;;;;;;;;;;5077744;28;19920;-60
2023/08/30 04:49:22;;;;;;;;;;;;;;;;;;5094340;28;19963;-60
2023/08/30 04:51:49;;;;;;;;;;;;;;;;;;5094026;28;19928;-60
2023/08/30 04:54:16;;;;;;;;;;;;;;;;;;5093274;28;20390;-60
2023/08/30 04:56:43;;;;;;;;;;;;;;;;;;5094903;28;19927;-60
2023/08/30 04:59:10;;;;;;;;;;;;;;;;;;5093922;28;19920;-60
2023/08/30 05:01:44;;;;;;;;;;;;;;;;;;5094270;28;19920;-59
2023/08/30 05:04:12;;;;;;;;;;;;;;;;;;5094624;28;20417;-59
2023/08/30 05:06:39;;;;;;;;;;;;;;;;;;5094455;28;19924;-58
2023/08/30 05:09:06;;;;;;;;;;;;;;;;;;5076643;28;19971;-59
2023/08/30 05:11:33;;;;;;;;;;;;;;;;;;5093469;28;20023;-59
2023/08/30 05:14:00;;;;;;;;;;;;;;;;;;5093503;28;20011;-59
2023/08/30 05:16:26;;;;;;;;;;;;;;;;;;5094351;28;19942;-59
2023/08/30 05:18:53;;;;;;;;;;;;;;;;;;5092989;28;20385;-59
2023/08/30 05:21:20;;;;;;;;;;;;;;;;;;5094141;28;19977;-59
2023/08/30 05:23:47;;;;;;;;;;;;;;;;;;5093168;28;19920;-59
2023/08/30 05:26:19;;;;;;;;;;;;;;;;;;5093306;28;19962;-61
2023/08/30 05:28:46;;;;;;;;;;;;;;;;;;5095211;28;19927;-59
2023/08/30 05:31:13;;;;;;;;;;;;;;;;;;5093019;28;19920;-59
2023/08/30 05:33:59;;;;;;;;;;;;;;;;;;5092901;28;19920;-60
2023/08/30 05:36:46;;;;;;;;;;;;;;;;;;5072609;28;19920;-58
2023/08/30 05:39:25;;;;;;;;;;;;;;;;;;5093903;28;20026;-60
2023/08/30 05:41:56;;;;;;;;;;;;;;;;;;5093153;28;19927;-59
2023/08/30 05:44:23;;;;;;;;;;;;;;;;;;5094054;28;19927;-59
2023/08/30 05:46:49;;;;;;;;;;;;;;;;;;5076038;28;19965;-59
2023/08/30 05:49:16;;;;;;;;;;;;;;;;;;5094113;28;20379;-59
2023/08/30 05:51:45;;;;;;;;;;;;;;;;;;5092752;28;19955;-59
2023/08/30 05:54:12;;;;;;;;;;;;;;;;;;5092754;28;19977;-59
2023/08/30 05:56:39;;;;;;;;;;;;;;;;;;5093957;28;19920;-59
2023/08/30 05:59:07;;;;;;;;;;;;;;;;;;5093191;28;19973;-59
2023/08/30 06:01:35;;;;;;;;;;;;;;;;;;5092767;28;19931;-60
2023/08/30 06:04:04;;;;;;;;;;;;;;;;;;5094004;28;20324;-59
2023/08/30 06:06:31;;;;;;;;;;;;;;;;;;5092390;28;19919;-60
2023/08/30 06:09:04;;;;;;;;;;;;;;;;;;5094100;28;19959;-60
2023/08/30 06:11:31;;;;;;;;;;;;;;;;;;5094307;28;19950;-61
2023/08/30 06:13:59;;;;;;;;;;;;;;;;;;5093126;28;19920;-60
2023/08/30 06:16:27;;;;;;;;;;;;;;;;;;5092747;28;20003;-59
2023/08/30 06:18:53;;;;;;;;;;;;;;;;;;5094155;28;19920;-61
2023/08/30 06:21:20;;;;;;;;;;;;;;;;;;5093806;28;19926;-59
2023/08/30 06:23:47;;;;;;;;;;;;;;;;;;5092562;28;19974;-59
2023/08/30 06:26:14;;;;;;;;;;;;;;;;;;5093601;28;20298;-59
2023/08/30 06:28:41;;;;;;;;;;;;;;;;;;5093447;28;19950;-59
2023/08/30 06:31:07;;;;;;;;;;;;;;;;;;5093374;28;19920;-60
2023/08/30 06:33:35;;;;;;;;;;;;;;;;;;5093568;28;19920;-59
2023/08/30 06:36:02;;;;;;;;;;;;;;;;;;5092194;28;19924;-60
2023/08/30 06:38:29;;;;;;;;;;;;;;;;;;5093293;28;20367;-60
2023/08/30 06:40:56;;;;;;;;;;;;;;;;;;5093209;28;19920;-60
2023/08/30 06:43:22;;;;;;;;;;;;;;;;;;5093032;28;19931;-60
2023/08/30 06:45:49;;;;;;;;;;;;;;;;;;5093233;28;19982;-59
2023/08/30 06:48:16;;;;;;;;;;;;;;;;;;5092952;28;19927;-59
2023/08/30 06:50:43;;;;;;;;;;;;;;;;;;5092510;28;19924;-59
2023/08/30 06:53:10;;;;;;;;;;;;;;;;;;5092952;28;19919;-60
2023/08/30 06:55:37;;;;;;;;;;;;;;;;;;5091888;28;20349;-59
2023/08/30 06:58:04;;;;;;;;;;;;;;;;;;5093049;28;19920;-60
2023/08/30 07:00:31;;;;;;;;;;;;;;;;;;5093197;28;20015;-59
2023/08/30 07:02:57;;;;;;;;;;;;;;;;;;5091600;28;19939;-59
2023/08/30 07:05:24;;;;;;;;;;;;;;;;;;5093413;28;19920;-60
2023/08/30 07:07:52;;;;;;;;;;;;;;;;;;5093073;28;19974;-59
2023/08/30 07:10:19;;;;;;;;;;;;;;;;;;5091129;28;19920;-59
2023/08/30 07:12:48;;;;;;;;;;;;;;;;;;5093382;28;20287;-60
2023/08/30 07:15:16;;;;;;;;;;;;;;;;;;5093064;28;19969;-59
2023/08/30 07:17:43;;;;;;;;;;;;;;;;;;5095172;28;19923;-60
2023/08/30 07:20:10;;;;;;;;;;;;;;;;;;5096918;28;20371;-59
2023/08/30 07:22:36;;;;;;;;;;;;;;;;;;5097005;28;19926;-59
2023/08/30 07:25:03;;;;;;;;;;;;;;;;;;5096828;28;19924;-59
2023/08/30 07:27:30;;;;;;;;;;;;;;;;;;5097217;28;19927;-59
2023/08/30 07:29:57;;;;;;;;;;;;;;;;;;5097149;28;20021;-60
2023/08/30 07:32:24;;;;;;;;;;;;;;;;;;5097113;28;19989;-60
2023/08/30 07:34:54;;;;;;;;;;;;;;;;;;5097567;28;20281;-59
2023/08/30 07:37:21;;;;;;;;;;;;;;;;;;5096505;28;20020;-60
2023/08/30 07:39:48;;;;;;;;;;;;;;;;;;5097467;28;19919;-59
2023/08/30 07:42:15;;;;;;;;;;;;;;;;;;5095585;28;19966;-60
2023/08/30 07:44:42;;;;;;;;;;;;;;;;;;5096533;28;19920;-59
2023/08/30 07:47:09;;;;;;;;;;;;;;;;;;5096157;28;20019;-59
2023/08/30 07:49:35;;;;;;;;;;;;;;;;;;5095952;28;19919;-59
2023/08/30 07:52:02;;;;;;;;;;;;;;;;;;5096307;28;20002;-60
2023/08/30 07:54:29;;;;;;;;;;;;;;;;;;5095775;28;20022;-60
2023/08/30 07:56:56;;;;;;;;;;;;;;;;;;5095373;28;20026;-58
2023/08/30 07:59:22;;;;;;;;;;;;;;;;;;5096394;28;19920;-60
2023/08/30 08:01:49;;;;;;;;;;;;;;;;;;5095825;28;19920;-60
2023/08/30 08:04:16;;;;;;;;;;;;;;;;;;5094476;28;20026;-58
2023/08/30 08:06:42;;;;;;;;;;;;;;;;;;5094134;28;19920;-58
2023/08/30 08:09:09;;;;;;;;;;;;;;;;;;5095548;28;20348;-58
2023/08/30 08:11:36;;;;;;;;;;;;;;;;;;5095782;28;20022;-58
2023/08/30 08:14:03;;;;;;;;;;;;;;;;;;5094716;28;19935;-59
2023/08/30 08:16:30;;;;;;;;;;;;;;;;;;5095940;28;20450;-58
2023/08/30 08:18:59;;;;;;;;;;;;;;;;;;5095537;28;19920;-58
2023/08/30 08:21:26;;;;;;;;;;;;;;;;;;5094856;28;19920;-58
2023/08/30 08:23:52;;;;;;;;;;;;;;;;;;5095653;28;19920;-58
2023/08/30 08:26:19;;;;;;;;;;;;;;;;;;5095389;28;19920;-58
2023/08/30 08:28:46;;;;;;;;;;;;;;;;;;5094419;28;19920;-58
2023/08/30 08:31:13;;;;;;;;;;;;;;;;;;5095223;28;20023;-58
2023/08/30 08:33:40;;;;;;;;;;;;;;;;;;5095017;28;19927;-58
2023/08/30 08:36:07;;;;;;;;;;;;;;;;;;5095497;28;19981;-58
2023/08/30 08:38:34;;;;;;;;;;;;;;;;;;5095357;28;19919;-59
2023/08/30 08:41:00;;;;;;;;;;;;;;;;;;5094723;28;19927;-58
2023/08/30 08:43:27;;;;;;;;;;;;;;;;;;5095210;28;19920;-58
2023/08/30 08:45:54;;;;;;;;;;;;;;;;;;5095149;28;19928;-59
2023/08/30 08:48:21;;;;;;;;;;;;;;;;;;5095224;28;20022;-58
2023/08/30 08:50:48;;;;;;;;;;;;;;;;;;5095319;28;19963;-58
2023/08/30 08:53:15;;;;;;;;;;;;;;;;;;5095149;28;20389;-59
2023/08/30 08:55:42;;;;;;;;;;;;;;;;;;5095043;28;20310;-59
2023/08/30 08:58:08;;;;;;;;;;;;;;;;;;5095087;28;19920;-59
2023/08/30 09:00:35;;;;;;;;;;;;;;;;;;5094945;28;20003;-59
2023/08/30 09:03:04;;;;;;;;;;;;;;;;;;5094888;28;19927;-59
2023/08/30 09:05:31;;;;;;;;;;;;;;;;;;5095095;28;20283;-59
2023/08/30 09:07:59;;;;;;;;;;;;;;;;;;5094569;28;20444;-59
2023/08/30 09:10:25;;;;;;;;;;;;;;;;;;5077658;28;19919;-59
2023/08/30 09:12:52;;;;;;;;;;;;;;;;;;5094633;28;19919;-59
2023/08/30 09:15:19;;;;;;;;;;;;;;;;;;5094623;28;19956;-59
2023/08/30 09:17:46;;;;;;;;;;;;;;;;;;5094619;28;19942;-59
2023/08/30 09:20:13;;;;;;;;;;;;;;;;;;5094456;28;20286;-59
2023/08/30 09:22:40;;;;;;;;;;;;;;;;;;5094406;28;20360;-59
2023/08/30 09:25:07;;;;;;;;;;;;;;;;;;5094463;28;19926;-58
2023/08/30 09:27:34;;;;;;;;;;;;;;;;;;5094975;28;19920;-59
2023/08/30 09:30:00;;;;;;;;;;;;;;;;;;5094713;28;20275;-58
2023/08/30 09:32:27;;;;;;;;;;;;;;;;;;5094128;28;19927;-59
2023/08/30 09:34:54;;;;;;;;;;;;;;;;;;5094170;28;19920;-59
2023/08/30 09:37:21;;;;;;;;;;;;;;;;;;5094146;28;19928;-59
2023/08/30 09:39:48;;;;;;;;;;;;;;;;;;5093111;28;19963;-59
2023/08/30 09:42:15;;;;;;;;;;;;;;;;;;5109918;28;20011;-59
2023/08/30 09:44:41;;;;;;;;;;;;;;;;;;5093983;28;20010;-59
2023/08/30 09:47:08;;;;;;;;;;;;;;;;;;5094384;28;19927;-60
2023/08/30 09:49:35;;;;;;;;;;;;;;;;;;5094179;28;20042;-60
2023/08/30 09:52:06;;;;;;;;;;;;;;;;;;5094415;28;19927;-59
2023/08/30 09:54:32;;;;;;;;;;;;;;;;;;5093838;28;20006;-60
2023/08/30 09:56:59;;;;;;;;;;;;;;;;;;5093597;28;19920;-60
2023/08/30 09:59:26;;;;;;;;;;;;;;;;;;5093800;28;19942;-59
2023/08/30 10:02:02;;;;;;;;;;;;;;;;;;5068229;27;19956;-59
2023/08/30 10:04:29;;;;;;;;;;;;;;;;;;5079676;28;19928;-59
2023/08/30 10:06:57;;;;;;;;;;;;;;;;;;5075808;28;20288;-58
2023/08/30 10:09:24;;;;;;;;;;;;;;;;;;5077561;28;19928;-58
2023/08/30 10:11:50;;;;;;;;;;;;;;;;;;5076253;28;20006;-58
2023/08/30 10:14:17;;;;;;;;;;;;;;;;;;5073164;28;19928;-58
2023/08/30 10:16:44;;;;;;;;;;;;;;;;;;5079336;28;20532;-58
2023/08/30 10:19:11;;;;;;;;;;;;;;;;;;5078195;28;19928;-58
2023/08/30 10:21:38;;;;;;;;;;;;;;;;;;5073135;28;19928;-58
2023/08/30 10:24:05;;;;;;;;;;;;;;;;;;5076149;28;19929;-58
2023/08/30 10:26:32;;;;;;;;;;;;;;;;;;5073763;28;20236;-58
2023/08/30 10:28:59;;;;;;;;;;;;;;;;;;5073321;28;20019;-59
2023/08/30 10:31:26;;;;;;;;;;;;;;;;;;5077694;28;20364;-58
2023/08/30 10:33:52;;;;;;;;;;;;;;;;;;5082714;28;20043;-59
2023/08/30 10:36:19;;;;;;;;;;;;;;;;;;5075500;28;19935;-59
2023/08/30 10:38:46;;;;;;;;;;;;;;;;;;5075106;28;19970;-58
2023/08/30 10:41:13;;;;;;;;;;;;;;;;;;5073838;28;19924;-58
2023/08/30 10:43:39;;;;;;;;;;;;;;;;;;5079319;28;20388;-58
2023/08/30 10:46:07;;;;;;;;;;;;;;;;;;5077887;28;19924;-58
2023/08/30 10:48:34;;;;;;;;;;;;;;;;;;5068041;28;20435;-58
2023/08/30 10:51:04;;;;;;;;;;;;;;;;;;5074601;28;20429;-58
2023/08/30 10:53:30;;;;;;;;;;;;;;;;;;5080370;28;19928;-59
2023/08/30 10:55:58;;;;;;;;;;;;;;;;;;5077103;28;20287;-59
2023/08/30 10:58:25;;;;;;;;;;;;;;;;;;5071644;28;19928;-58
2023/08/30 11:00:52;;;;;;;;;;;;;;;;;;5069984;28;19935;-58
2023/08/30 11:03:19;;;;;;;;;;;;;;;;;;5075708;28;19933;-58
2023/08/30 11:05:45;;;;;;;;;;;;;;;;;;5071506;28;19928;-58
2023/08/30 11:08:13;;;;;;;;;;;;;;;;;;5072227;28;19936;-58
2023/08/30 11:10:42;;;;;;;;;;;;;;;;;;5073646;28;19932;-58
2023/08/30 11:13:08;;;;;;;;;;;;;;;;;;5059165;28;19932;-58
2023/08/30 11:15:35;;;;;;;;;;;;;;;;;;5058797;28;19994;-58
2023/08/30 11:18:02;;;;;;;;;;;;;;;;;;5064965;28;19931;-58
2023/08/30 11:20:29;;;;;;;;;;;;;;;;;;5064080;28;19928;-58
2023/08/30 11:22:55;;;;;;;;;;;;;;;;;;5061264;28;19974;-58
2023/08/30 11:25:22;;;;;;;;;;;;;;;;;;5059361;28;20023;-58
2023/08/30 11:27:49;;;;;;;;;;;;;;;;;;5061370;28;20336;-58
2023/08/30 11:30:16;;;;;;;;;;;;;;;;;;5055425;28;19936;-58
2023/08/30 11:32:43;;;;;;;;;;;;;;;;;;5062610;28;19925;-58
2023/08/30 11:35:10;;;;;;;;;;;;;;;;;;5057229;28;20370;-58
2023/08/30 11:37:37;;;;;;;;;;;;;;;;;;5063906;28;19936;-59
2023/08/30 11:40:05;;;;;;;;;;;;;;;;;;5065997;28;20039;-58
2023/08/30 11:42:32;;;;;;;;;;;;;;;;;;5055881;28;19931;-58
2023/08/30 11:44:59;;;;;;;;;;;;;;;;;;5059050;28;19987;-58
2023/08/30 11:47:26;;;;;;;;;;;;;;;;;;5060008;28;19929;-58
2023/08/30 11:49:53;;;;;;;;;;;;;;;;;;5058875;28;19933;-58
2023/08/30 11:52:19;;;;;;;;;;;;;;;;;;5061520;28;19975;-58
2023/08/30 11:54:46;;;;;;;;;;;;;;;;;;5064851;28;20303;-58
2023/08/30 11:57:13;;;;;;;;;;;;;;;;;;5060324;28;19928;-58
2023/08/30 11:59:40;;;;;;;;;;;;;;;;;;5060233;28;19928;-58
2023/08/30 12:02:07;;;;;;;;;;;;;;;;;;5056744;28;19970;-59
2023/08/30 12:04:33;;;;;;;;;;;;;;;;;;5049999;28;19954;-59
2023/08/30 12:07:00;;;;;;;;;;;;;;;;;;5060307;28;19932;-58
2023/08/30 12:09:27;;;;;;;;;;;;;;;;;;5059766;28;19948;-58
2023/08/30 12:11:54;;;;;;;;;;;;;;;;;;5062265;28;21176;-58
2023/08/30 12:14:20;;;;;;;;;;;;;;;;;;5059933;28;20496;-60
2023/08/30 12:16:47;;;;;;;;;;;;;;;;;;5059286;28;19924;-58
2023/08/30 12:19:14;;;;;;;;;;;;;;;;;;5056675;28;20332;-58
2023/08/30 12:21:41;;;;;;;;;;;;;;;;;;5060883;28;19929;-58
2023/08/30 12:24:07;;;;;;;;;;;;;;;;;;5057648;28;19929;-58
2023/08/30 12:26:34;;;;;;;;;;;;;;;;;;5061653;28;20414;-58
2023/08/30 12:29:01;;;;;;;;;;;;;;;;;;5062139;28;20666;-58
2023/08/30 12:31:27;;;;;;;;;;;;;;;;;;5060158;28;19946;-58
2023/08/30 12:33:54;;;;;;;;;;;;;;;;;;5053061;28;20007;-58
2023/08/30 12:36:20;;;;;;;;;;;;;;;;;;5058648;28;19925;-58
2023/08/30 12:38:48;;;;;;;;;;;;;;;;;;5059528;28;19928;-58
2023/08/30 12:41:14;;;;;;;;;;;;;;;;;;5063354;28;20401;-59
2023/08/30 12:43:41;;;;;;;;;;;;;;;;;;5062311;28;20411;-58
2023/08/30 12:46:08;;;;;;;;;;;;;;;;;;5058107;28;19928;-58
2023/08/30 12:48:35;;;;;;;;;;;;;;;;;;5058825;28;19974;-58
2023/08/30 12:51:03;;;;;;;;;;;;;;;;;;5053045;28;19935;-58
2023/08/30 12:53:30;;;;;;;;;;;;;;;;;;5056265;28;19928;-58
2023/08/30 12:55:56;;;;;;;;;;;;;;;;;;5055519;28;19978;-59
2023/08/30 12:58:23;;;;;;;;;;;;;;;;;;5060940;28;20387;-58
2023/08/30 13:00:50;;;;;;;;;;;;;;;;;;5059192;28;19924;-58
2023/08/30 13:03:17;;;;;;;;;;;;;;;;;;5060893;28;19925;-58
2023/08/30 13:05:44;;;;;;;;;;;;;;;;;;5062779;28;20123;-58
2023/08/30 13:08:11;;;;;;;;;;;;;;;;;;5059884;28;19929;-58
2023/08/30 13:10:37;;;;;;;;;;;;;;;;;;5057911;28;20238;-58
2023/08/30 13:13:04;;;;;;;;;;;;;;;;;;5055457;28;19929;-58
2023/08/30 13:15:31;;;;;;;;;;;;;;;;;;5058033;28;20044;-59
2023/08/30 13:17:58;;;;;;;;;;;;;;;;;;5060494;28;19956;-58
2023/08/30 13:20:25;;;;;;;;;;;;;;;;;;5059105;28;19928;-58
2023/08/30 13:22:52;;;;;;;;;;;;;;;;;;5061818;28;19932;-58
2023/08/30 13:25:19;;;;;;;;;;;;;;;;;;5057298;28;19924;-59
2023/08/30 13:27:46;;;;;;;;;;;;;;;;;;5059273;28;19929;-58
2023/08/30 13:30:13;;;;;;;;;;;;;;;;;;5057799;28;19931;-58
2023/08/30 13:32:40;;;;;;;;;;;;;;;;;;5072495;28;19929;-59
2023/08/30 13:35:07;;;;;;;;;;;;;;;;;;5050905;28;19924;-59
2023/08/30 13:37:34;;;;;;;;;;;;;;;;;;5057120;28;19924;-59
2023/08/30 13:40:00;;;;;;;;;;;;;;;;;;5053043;28;19994;-59
2023/08/30 13:42:27;;;;;;;;;;;;;;;;;;5058081;28;20391;-58
2023/08/30 13:44:54;;;;;;;;;;;;;;;;;;5055778;28;19925;-59
2023/08/30 13:47:21;;;;;;;;;;;;;;;;;;5054523;28;19978;-58
2023/08/30 13:49:47;;;;;;;;;;;;;;;;;;5055378;28;20033;-59
2023/08/30 13:52:15;;;;;;;;;;;;;;;;;;5059022;28;19929;-59
2023/08/30 13:54:42;;;;;;;;;;;;;;;;;;5051457;28;19932;-59
2023/08/30 13:57:09;;;;;;;;;;;;;;;;;;5052214;28;19925;-59
2023/08/30 13:59:36;;;;;;;;;;;;;;;;;;5058397;28;20395;-59
2023/08/30 14:02:03;;;;;;;;;;;;;;;;;;5056731;28;19925;-58
2023/08/30 14:04:32;;;;;;;;;;;;;;;;;;5057696;28;20451;-59
2023/08/30 14:06:58;;;;;;;;;;;;;;;;;;5050864;28;19936;-59
2023/08/30 14:09:25;;;;;;;;;;;;;;;;;;5055959;28;19947;-57
2023/08/30 14:11:52;;;;;;;;;;;;;;;;;;5063400;28;19925;-59
2023/08/30 14:14:19;;;;;;;;;;;;;;;;;;5047934;28;19974;-59
2023/08/30 14:16:45;;;;;;;;;;;;;;;;;;5061911;28;19932;-59
2023/08/30 14:19:12;;;;;;;;;;;;;;;;;;5062930;28;19925;-59
2023/08/30 14:21:39;;;;;;;;;;;;;;;;;;5055266;28;20014;-59
2023/08/30 14:24:06;;;;;;;;;;;;;;;;;;5060716;28;19924;-59
2023/08/30 14:26:33;;;;;;;;;;;;;;;;;;5058193;28;20394;-59
2023/08/30 14:28:59;;;;;;;;;;;;;;;;;;5055715;28;20403;-59
2023/08/30 14:31:26;;;;;;;;;;;;;;;;;;5056644;28;19925;-59
2023/08/30 14:33:53;;;;;;;;;;;;;;;;;;5064898;28;20172;-59
2023/08/30 14:36:19;;;;;;;;;;;;;;;;;;5057297;28;19928;-59
2023/08/30 14:38:46;;;;;;;;;;;;;;;;;;5057442;28;20239;-59
2023/08/30 14:41:15;;;;;;;;;;;;;;;;;;5064044;28;19931;-59
2023/08/30 14:43:42;;;;;;;;;;;;;;;;;;5057409;28;19932;-59
2023/08/30 14:46:09;;;;;;;;;;;;;;;;;;5051826;28;19929;-59
2023/08/30 14:48:35;;;;;;;;;;;;;;;;;;5063328;28;19974;-59
2023/08/30 14:51:02;;;;;;;;;;;;;;;;;;5062338;28;19938;-59
2023/08/30 14:53:29;;;;;;;;;;;;;;;;;;5065541;28;20026;-59
2023/08/30 14:55:56;;;;;;;;;;;;;;;;;;5064810;28;20353;-59
2023/08/30 14:58:23;;;;;;;;;;;;;;;;;;5067025;28;20228;-59
2023/08/30 15:00:49;;;;;;;;;;;;;;;;;;5064345;28;20032;-58
2023/08/30 15:03:16;;;;;;;;;;;;;;;;;;5063225;28;19955;-58
2023/08/30 15:05:43;;;;;;;;;;;;;;;;;;5057369;28;19924;-59
2023/08/30 15:08:10;;;;;;;;;;;;;;;;;;5059966;28;19929;-58
2023/08/30 15:10:36;;;;;;;;;;;;;;;;;;5052526;28;23352;-58
2023/08/30 15:13:04;;;;;;;;;;;;;;;;;;5055382;28;19929;-58
2023/08/30 15:15:31;;;;;;;;;;;;;;;;;;5060938;28;20057;-59
2023/08/30 15:17:59;;;;;;;;;;;;;;;;;;5064690;28;20310;-58
2023/08/30 15:20:26;;;;;;;;;;;;;;;;;;5062565;28;19990;-59
2023/08/30 15:22:53;;;;;;;;;;;;;;;;;;5062808;28;19950;-59
2023/08/30 15:25:19;;;;;;;;;;;;;;;;;;5061932;28;21489;-59
2023/08/30 15:27:46;;;;;;;;;;;;;;;;;;5062599;28;19971;-59
2023/08/30 15:30:13;;;;;;;;;;;;;;;;;;5057404;28;19935;-59
2023/08/30 15:32:40;;;;;;;;;;;;;;;;;;5064442;28;19978;-59
2023/08/30 15:35:07;;;;;;;;;;;;;;;;;;5062594;28;19924;-59
2023/08/30 15:37:34;;;;;;;;;;;;;;;;;;5064427;28;20011;-59
2023/08/30 15:40:03;;;;;;;;;;;;;;;;;;5062779;28;19963;-59
2023/08/30 15:42:30;;;;;;;;;;;;;;;;;;5063874;28;19925;-59
2023/08/30 15:44:57;;;;;;;;;;;;;;;;;;5064070;28;20290;-59
2023/08/30 15:47:23;;;;;;;;;;;;;;;;;;5065376;28;19931;-59
2023/08/30 15:49:50;;;;;;;;;;;;;;;;;;5061348;28;19947;-59
2023/08/30 15:52:17;;;;;;;;;;;;;;;;;;5065015;28;19936;-59
2023/08/30 15:54:44;;;;;;;;;;;;;;;;;;5061954;28;20383;-59
2023/08/30 15:57:10;;;;;;;;;;;;;;;;;;5054938;28;19942;-59
2023/08/30 15:59:37;;;;;;;;;;;;;;;;;;5056679;28;20379;-58
2023/08/30 16:02:04;;;;;;;;;;;;;;;;;;5063253;28;20363;-59
2023/08/30 16:04:31;;;;;;;;;;;;;;;;;;5066397;28;19924;-59
2023/08/30 16:06:58;;;;;;;;;;;;;;;;;;5059334;28;20009;-59
2023/08/30 16:09:24;;;;;;;;;;;;;;;;;;5058996;28;20019;-59
2023/08/30 16:11:51;;;;;;;;;;;;;;;;;;5064878;28;19934;-59
2023/08/30 16:14:18;;;;;;;;;;;;;;;;;;5058782;28;20307;-59
2023/08/30 16:16:44;;;;;;;;;;;;;;;;;;5064929;28;19924;-58
2023/08/30 16:19:11;;;;;;;;;;;;;;;;;;5058574;28;19932;-59
2023/08/30 16:21:38;;;;;;;;;;;;;;;;;;5063688;28;19982;-59
2023/08/30 16:24:05;;;;;;;;;;;;;;;;;;5064386;28;19989;-59
2023/08/30 16:26:32;;;;;;;;;;;;;;;;;;5058121;28;19928;-59
2023/08/30 16:28:59;;;;;;;;;;;;;;;;;;5061632;28;20016;-59
2023/08/30 16:31:26;;;;;;;;;;;;;;;;;;5058996;28;19931;-59
2023/08/30 16:33:56;;;;;;;;;;;;;;;;;;5059496;28;19928;-59
2023/08/30 16:36:23;;;;;;;;;;;;;;;;;;5059998;28;19935;-59
2023/08/30 16:38:49;;;;;;;;;;;;;;;;;;5058868;28;20037;-59
2023/08/30 16:41:16;;;;;;;;;;;;;;;;;;5064015;28;19924;-59
2023/08/30 16:43:43;;;;;;;;;;;;;;;;;;5058212;28;19998;-59